createdAt,value
2023-01-15T01:22:30.645Z,0.66
2023-01-15T01:25:03.392Z,0.76
2023-01-15T01:27:36.158Z,0.74
2023-01-15T01:30:11.205Z,0.71
2023-01-15T01:32:47.826Z,0.66
2023-01-15T01:35:20.533Z,0.61
2023-01-15T01:37:53.431Z,0.61
2023-01-15T01:40:26.872Z,0.58
2023-01-15T01:43:00.088Z,0.55
2023-01-15T01:45:34.312Z,0.53
2023-01-15T01:48:07.760Z,0.53
2023-01-15T01:50:40.795Z,0.48
2023-01-15T01:53:23.042Z,0.52
2023-01-15T01:55:55.569Z,0.55
2023-01-15T01:58:30.962Z,0.59
2023-01-15T02:01:03.870Z,0.52
2023-01-15T02:03:38.779Z,0.51
2023-01-15T02:06:11.807Z,0.52
2023-01-15T02:08:44.301Z,0.55
2023-01-15T02:11:20.486Z,0.61
2023-01-15T02:14:04.042Z,0.67
2023-01-15T02:16:49.964Z,0.75
2023-01-15T02:19:53.078Z,0.78
2023-01-15T02:22:49.443Z,0.80
2023-01-15T02:25:56.920Z,0.80
2023-01-15T02:28:37.301Z,0.81
2023-01-15T02:31:18.282Z,0.83
2023-01-15T02:34:25.575Z,0.84
2023-01-15T02:37:03.172Z,0.86
2023-01-15T02:39:38.723Z,0.90
2023-01-15T02:42:10.955Z,0.91
2023-01-15T02:44:48.982Z,0.93
2023-01-15T02:47:25.356Z,0.93
2023-01-15T02:49:59.525Z,0.93
2023-01-15T02:52:40.623Z,0.94
2023-01-15T02:55:20.926Z,0.93
2023-01-15T02:57:54.354Z,0.92
2023-01-15T03:00:26.984Z,0.90
2023-01-15T03:03:09.817Z,0.87
2023-01-15T03:05:59.172Z,0.84
2023-01-15T03:08:32.235Z,0.81
2023-01-15T03:11:19.246Z,0.76
2023-01-15T03:14:09.494Z,0.72
2023-01-15T03:16:54.296Z,0.72
2023-01-15T03:19:37.936Z,0.76
2023-01-15T03:22:34.983Z,0.78
2023-01-15T03:25:15.157Z,0.78
2023-01-15T03:27:49.295Z,0.77
2023-01-15T03:30:23.253Z,0.76
2023-01-15T03:32:56.680Z,0.72
2023-01-15T03:35:57.568Z,0.67
2023-01-15T03:38:39.858Z,0.60
2023-01-15T03:41:47.473Z,0.53
2023-01-15T03:44:36.875Z,0.52
2023-01-15T03:47:34.666Z,0.51
2023-01-15T03:50:17.094Z,0.49
2023-01-15T03:53:16.056Z,0.48
2023-01-15T03:56:06.535Z,0.48
2023-01-15T03:58:46.814Z,0.47
2023-01-15T04:01:24.753Z,0.50
2023-01-15T04:04:03.347Z,0.51
2023-01-15T04:06:38.823Z,0.54
2023-01-15T04:09:11.075Z,0.56
2023-01-15T04:11:43.425Z,0.59
2023-01-15T04:14:17.365Z,0.55
2023-01-15T04:16:51.714Z,0.52
2023-01-15T04:19:26.319Z,0.49
2023-01-15T04:22:03.384Z,0.49
2023-01-15T04:24:36.224Z,0.47
2023-01-15T04:27:08.864Z,0.46
2023-01-15T04:29:41.452Z,0.49
2023-01-15T04:32:14.160Z,0.51
2023-01-15T04:34:46.673Z,0.55
2023-01-15T04:37:20.758Z,0.58
2023-01-15T04:39:53.446Z,0.56
2023-01-15T04:42:44.438Z,0.53
2023-01-15T04:45:18.088Z,0.48
2023-01-15T04:47:50.826Z,0.40
2023-01-15T04:50:23.281Z,0.38
2023-01-15T04:52:56.532Z,0.35
2023-01-15T04:55:29.622Z,0.35
2023-01-15T04:58:02.493Z,0.33
2023-01-15T05:00:35.109Z,0.36
2023-01-15T05:03:08.036Z,0.38
2023-01-15T05:05:40.523Z,0.42
2023-01-15T05:08:14.039Z,0.43
2023-01-15T05:10:47.027Z,0.43
2023-01-15T05:13:20.306Z,0.40
2023-01-15T05:15:52.730Z,0.32
2023-01-15T05:18:26.380Z,0.28
2023-01-15T05:20:59.138Z,0.29
2023-01-15T05:23:31.687Z,0.28
2023-01-15T05:26:05.559Z,0.26
2023-01-15T05:28:38.694Z,0.25
2023-01-15T05:31:16.273Z,0.23
2023-01-15T05:33:50.312Z,0.20
2023-01-15T05:36:27.173Z,0.17
2023-01-15T05:39:02.299Z,0.20
2023-01-15T05:41:51.891Z,0.23
2023-01-15T05:44:27.898Z,0.26
2023-01-15T05:47:06.617Z,0.26
2023-01-15T05:49:39.449Z,0.30
2023-01-15T05:52:12.488Z,0.34
2023-01-15T05:54:45.617Z,0.32
2023-01-15T05:57:18.996Z,0.33
2023-01-15T05:59:53.427Z,0.38
2023-01-15T06:02:25.233Z,0.41
2023-01-15T06:04:58.181Z,0.43
2023-01-15T06:07:30.809Z,0.42
2023-01-15T06:10:03.548Z,0.46
2023-01-15T06:12:36.138Z,0.46
2023-01-15T06:15:09.976Z,0.44
2023-01-15T06:17:42.831Z,0.42
2023-01-15T06:20:15.557Z,0.41
2023-01-15T06:22:50.354Z,0.39
2023-01-15T06:25:23.880Z,0.39
2023-01-15T06:27:56.559Z,0.37
2023-01-15T06:30:29.395Z,0.38
2023-01-15T06:33:02.361Z,0.39
2023-01-15T06:35:35.120Z,0.40
2023-01-15T06:38:07.726Z,0.40
2023-01-15T06:40:40.575Z,0.39
2023-01-15T06:43:30.841Z,0.38
2023-01-15T06:46:21.600Z,0.34
2023-01-15T06:48:54.895Z,0.33
2023-01-15T06:51:29.114Z,0.30
2023-01-15T06:54:01.150Z,0.28
2023-01-15T06:56:34.336Z,0.25
2023-01-15T06:59:07.052Z,0.28
2023-01-15T07:01:40.177Z,0.32
2023-01-15T07:04:12.846Z,0.32
2023-01-15T07:06:45.997Z,0.40
2023-01-15T07:09:18.741Z,0.43
2023-01-15T07:11:51.407Z,0.49
2023-01-15T07:14:28.296Z,0.55
2023-01-15T07:17:00.793Z,0.61
2023-01-15T07:19:33.811Z,0.64
2023-01-15T07:22:07.507Z,0.65
2023-01-15T07:24:40.350Z,0.65
2023-01-15T07:27:12.755Z,0.66
2023-01-15T07:29:45.202Z,0.71
2023-01-15T07:32:18.903Z,0.73
2023-01-15T07:34:51.506Z,0.76
2023-01-15T07:37:24.115Z,0.79
2023-01-15T07:39:57.620Z,0.80
2023-01-15T07:42:48.753Z,0.81
2023-01-15T07:45:40.263Z,0.82
2023-01-15T07:48:30.615Z,0.88
2023-01-15T07:51:03.092Z,0.91
2023-01-15T07:53:35.770Z,0.92
2023-01-15T07:56:08.988Z,0.94
2023-01-15T07:58:41.767Z,0.91
2023-01-15T08:01:14.217Z,0.94
2023-01-15T08:03:46.902Z,0.93
2023-01-15T08:06:19.513Z,0.97
2023-01-15T08:08:52.379Z,1.02
2023-01-15T08:11:42.947Z,1.03
2023-01-15T08:14:33.057Z,1.01
2023-01-15T08:17:05.828Z,1.04
2023-01-15T08:19:39.113Z,1.05
2023-01-15T08:22:12.681Z,1.12
2023-01-15T08:24:45.243Z,1.21
2023-01-15T08:27:18.435Z,1.25
2023-01-15T08:29:51.195Z,1.27
2023-01-15T08:32:24.246Z,1.31
2023-01-15T08:34:56.576Z,1.38
2023-01-15T08:37:29.031Z,1.39
2023-01-15T08:40:01.468Z,1.45
2023-01-15T08:42:33.979Z,1.48
2023-01-15T08:45:07.278Z,1.49
2023-01-15T08:47:39.819Z,1.51
2023-01-15T08:50:13.263Z,1.55
2023-01-15T08:52:45.743Z,1.58
2023-01-15T08:55:18.350Z,1.57
2023-01-15T08:57:52.459Z,1.59
2023-01-15T09:00:25.417Z,1.57
2023-01-15T09:02:58.554Z,1.60
2023-01-15T09:05:31.032Z,1.60
2023-01-15T09:08:05.111Z,1.57
2023-01-15T09:10:38.090Z,1.59
2023-01-15T09:13:11.152Z,1.62
2023-01-15T09:15:44.513Z,1.63
2023-01-15T09:18:18.924Z,1.65
2023-01-15T09:20:51.318Z,1.65
2023-01-15T09:23:23.862Z,1.65
2023-01-15T09:25:59.645Z,1.61
2023-01-15T09:28:32.223Z,1.61
2023-01-15T09:31:05.322Z,1.57
2023-01-15T09:33:38.813Z,1.59
2023-01-15T09:36:28.052Z,1.59
2023-01-15T09:39:01.295Z,1.62
2023-01-15T09:42:02.773Z,1.56
2023-01-15T09:45:19.267Z,1.52
2023-01-15T09:48:20.266Z,1.45
2023-01-15T09:51:18.713Z,1.47
2023-01-15T09:54:18.343Z,1.49
2023-01-15T09:56:50.920Z,1.51
2023-01-15T09:59:38.682Z,1.50
2023-01-15T10:02:33.927Z,1.46
2023-01-15T10:05:20.659Z,1.40
2023-01-15T10:08:16.804Z,1.42
2023-01-15T10:10:53.393Z,1.33
2023-01-15T10:14:00.804Z,1.32
2023-01-15T10:16:36.807Z,1.38
2023-01-15T10:19:10.977Z,1.43
2023-01-15T10:22:03.907Z,1.51
2023-01-15T10:24:41.076Z,1.50
2023-01-15T10:27:25.091Z,1.45
2023-01-15T10:30:07.785Z,1.42
2023-01-15T10:33:02.106Z,1.38
2023-01-15T10:36:02.994Z,1.39
2023-01-15T10:41:50.864Z,1.47
2023-01-15T10:44:42.924Z,1.47
2023-01-15T10:47:18.573Z,1.47
2023-01-15T10:49:51.125Z,1.42
2023-01-15T10:52:36.140Z,1.40
2023-01-15T10:55:46.460Z,1.41
2023-01-15T10:58:43.622Z,1.45
2023-01-15T11:01:20.366Z,1.54
2023-01-15T11:03:52.915Z,1.57
2023-01-15T11:06:27.276Z,1.59
2023-01-15T11:09:10.699Z,1.54
2023-01-15T11:11:43.875Z,1.52
2023-01-15T11:14:34.568Z,1.50
2023-01-15T11:17:29.721Z,1.50
2023-01-15T11:20:02.478Z,1.48
2023-01-15T11:22:37.460Z,1.53
2023-01-15T11:25:11.150Z,1.58
2023-01-15T11:27:43.878Z,1.62
2023-01-15T11:30:36.893Z,1.61
2023-01-15T11:33:22.064Z,1.59
2023-01-15T11:36:15.853Z,1.63
2023-01-15T11:38:50.189Z,1.64
2023-01-15T11:41:49.821Z,1.59
2023-01-15T11:44:41.532Z,1.56
2023-01-15T11:47:33.434Z,1.56
2023-01-15T11:50:37.572Z,1.61
2023-01-15T11:53:18.633Z,1.67
2023-01-15T11:56:07.354Z,1.66
2023-01-15T11:58:51.212Z,1.65
2023-01-15T12:01:31.981Z,1.64
2023-01-15T12:04:11.641Z,1.60
2023-01-15T12:06:44.101Z,1.56
2023-01-15T12:09:30.409Z,1.53
2023-01-15T12:12:10.439Z,1.48
2023-01-15T12:15:00.989Z,1.50
2023-01-15T12:17:44.165Z,1.51
2023-01-15T12:20:58.117Z,1.53
2023-01-15T12:23:59.585Z,1.53
2023-01-15T12:26:51.060Z,1.55
2023-01-15T12:29:27.760Z,1.52
2023-01-15T12:32:08.000Z,1.57
2023-01-15T12:34:54.347Z,1.56
2023-01-15T12:37:44.487Z,1.51
2023-01-15T12:40:36.462Z,1.47
2023-01-15T12:43:34.790Z,1.47
2023-01-15T12:46:07.687Z,1.53
2023-01-15T12:49:16.709Z,1.59
2023-01-15T12:52:13.084Z,1.58
2023-01-15T12:54:50.734Z,1.57
2023-01-15T13:00:36.035Z,1.52
2023-01-15T13:03:35.205Z,1.49
2023-01-15T13:06:09.495Z,1.48
2023-01-15T13:09:02.147Z,1.45
2023-01-15T13:11:35.888Z,1.41
2023-01-15T13:14:15.956Z,1.43
2023-01-15T13:17:08.727Z,1.39
2023-01-15T13:20:13.334Z,1.36
2023-01-15T13:22:50.768Z,1.33
2023-01-15T13:25:33.533Z,1.29
2023-01-15T13:28:16.259Z,1.26
2023-01-15T13:31:02.133Z,1.20
2023-01-15T13:33:47.726Z,1.13
2023-01-15T13:36:30.179Z,1.08
2023-01-15T13:39:04.031Z,1.03
2023-01-15T13:41:54.684Z,0.96
2023-01-15T13:44:31.544Z,0.90
2023-01-15T13:47:07.480Z,0.88
2023-01-15T13:49:53.039Z,0.85
2023-01-15T13:52:39.105Z,0.85
2023-01-15T13:55:19.254Z,0.81
2023-01-15T13:57:51.849Z,0.83
2023-01-15T14:00:40.433Z,0.85
2023-01-15T14:03:37.802Z,0.89
2023-01-15T14:06:11.362Z,0.92
2023-01-15T14:08:45.830Z,0.94
2023-01-15T14:11:40.289Z,0.96
2023-01-15T14:14:55.316Z,0.94
2023-01-15T14:18:05.526Z,0.95
2023-01-15T14:21:02.472Z,0.95
2023-01-15T14:23:59.700Z,0.91
2023-01-15T14:27:00.507Z,0.86
2023-01-15T14:30:00.347Z,0.85
2023-01-15T14:32:56.216Z,0.84
2023-01-15T14:35:29.467Z,0.81
2023-01-15T14:38:07.416Z,0.77
2023-01-15T14:40:42.089Z,0.77
2023-01-15T14:43:19.040Z,0.79
2023-01-15T14:45:53.070Z,0.78
2023-01-15T14:48:39.228Z,0.69
2023-01-15T14:51:21.926Z,0.63
2023-01-15T14:54:07.700Z,0.67
2023-01-15T14:56:43.818Z,0.68
2023-01-15T14:59:25.946Z,0.62
2023-01-15T15:02:03.101Z,0.61
2023-01-15T15:04:54.959Z,0.64
2023-01-15T15:07:45.042Z,0.64
2023-01-15T15:10:40.659Z,0.66
2023-01-15T15:13:33.693Z,0.65
2023-01-15T15:16:09.596Z,0.66
2023-01-15T15:18:46.401Z,0.63
2023-01-15T15:21:39.240Z,0.64
2023-01-15T15:24:35.568Z,0.65
2023-01-15T15:27:21.989Z,0.66
2023-01-15T15:29:56.110Z,0.65
2023-01-15T15:32:28.501Z,0.61
2023-01-15T15:35:00.799Z,0.60
2023-01-15T15:37:34.727Z,0.61
2023-01-15T15:40:16.861Z,0.67
2023-01-15T15:43:14.533Z,0.67
2023-01-15T15:46:13.170Z,0.68
2023-01-15T15:48:48.680Z,0.70
2023-01-15T15:51:49.689Z,0.71
2023-01-15T15:54:31.642Z,0.69
2023-01-15T15:57:16.206Z,0.70
2023-01-15T15:59:55.529Z,0.76
2023-01-15T16:02:38.098Z,0.73
2023-01-15T19:27:33.942Z,0.44
2023-01-15T19:30:08.173Z,0.46
2023-01-15T19:32:40.285Z,0.47
2023-01-15T19:35:12.761Z,0.46
2023-01-15T19:37:45.339Z,0.47
2023-01-15T19:40:23.918Z,0.49
2023-01-15T19:43:15.706Z,0.44
2023-01-15T19:46:06.103Z,0.34
2023-01-15T19:48:56.401Z,0.31
2023-01-15T19:51:30.445Z,0.35
2023-01-15T19:54:04.922Z,0.35
2023-01-15T19:56:38.288Z,0.31
2023-01-15T19:59:10.913Z,0.25
2023-01-15T20:01:43.499Z,0.21
2023-01-15T20:04:15.906Z,0.22
2023-01-15T20:06:48.491Z,0.24
2023-01-15T20:09:21.255Z,0.19
2023-01-15T20:12:04.301Z,0.18
2023-01-15T20:15:06.368Z,0.29
2023-01-15T20:17:39.256Z,0.20
2023-01-15T20:20:13.038Z,0.16
2023-01-15T20:22:45.529Z,0.17
2023-01-15T20:25:19.044Z,0.20
2023-01-15T20:27:51.798Z,0.22
2023-01-15T20:30:24.413Z,0.19
2023-01-15T20:32:59.482Z,0.20
2023-01-15T20:35:32.236Z,0.25
2023-01-15T20:38:04.535Z,0.22
2023-01-15T20:40:37.355Z,0.20
2023-01-15T20:43:30.428Z,0.21
2023-01-15T20:46:16.568Z,0.24
2023-01-15T20:49:06.691Z,0.28
2023-01-15T20:51:39.356Z,0.30
2023-01-15T20:54:11.998Z,0.27
2023-01-15T20:56:44.458Z,0.27
2023-01-15T20:59:16.852Z,0.25
2023-01-15T21:01:49.216Z,0.23
2023-01-15T21:04:22.801Z,0.25
2023-01-15T21:06:55.724Z,0.21
2023-01-15T21:09:28.280Z,0.22
2023-01-15T21:12:01.051Z,0.23
2023-01-15T21:14:34.307Z,0.27
2023-01-15T21:17:07.709Z,0.30
2023-01-15T21:19:40.701Z,0.32
2023-01-15T21:22:13.211Z,0.32
2023-01-15T21:24:47.356Z,0.36
2023-01-15T21:27:20.473Z,0.35
2023-01-15T21:29:53.609Z,0.21
2023-01-15T21:32:26.251Z,0.09
2023-01-15T21:34:59.897Z,0.02
2023-01-15T21:37:32.601Z,-0.01
2023-01-15T21:40:05.824Z,-0.02
2023-01-15T21:42:57.728Z,-0.06
2023-01-15T21:45:30.057Z,-0.12
2023-01-15T21:48:02.622Z,-0.15
2023-01-15T21:50:37.955Z,-0.15
2023-01-15T21:53:10.295Z,-0.11
2023-01-15T21:55:45.889Z,-0.06
2023-01-15T21:58:19.990Z,-0.05
2023-01-15T22:00:53.303Z,-0.05
2023-01-15T22:03:26.012Z,-0.06
2023-01-15T22:06:00.135Z,-0.05
2023-01-15T22:08:32.466Z,-0.07
2023-01-15T22:11:09.722Z,-0.01
2023-01-15T22:13:42.456Z,0.00
2023-01-15T22:16:14.915Z,0.00
2023-01-15T22:18:48.065Z,0.05
2023-01-15T22:21:21.635Z,0.06
